createdAt,value
2022-10-13T00:00:54.194Z,68.88
2022-10-13T00:03:23.367Z,69.31
2022-10-13T00:05:51.711Z,69.20
2022-10-13T00:08:22.085Z,69.42
2022-10-13T00:10:53.734Z,69.27
2022-10-13T00:13:21.488Z,69.50
2022-10-13T00:15:49.613Z,69.62
2022-10-13T00:18:18.076Z,69.82
2022-10-13T00:20:49.197Z,69.65
2022-10-13T00:23:17.355Z,69.67
2022-10-13T00:25:46.423Z,69.36
2022-10-13T00:28:15.623Z,69.48
2022-10-13T00:30:43.404Z,69.51
2022-10-13T00:33:11.495Z,69.52
2022-10-13T00:35:41.891Z,69.76
2022-10-13T00:38:11.568Z,69.71
2022-10-13T00:40:46.894Z,69.82
2022-10-13T00:43:17.983Z,69.72
2022-10-13T00:45:46.724Z,69.88
2022-10-13T00:48:14.436Z,69.84
2022-10-13T00:50:43.428Z,70.17
2022-10-13T00:53:12.984Z,70.19
2022-10-13T00:55:42.247Z,70.16
2022-10-13T00:58:11.955Z,70.47
2022-10-13T01:00:39.829Z,70.64
2022-10-13T01:03:07.550Z,70.49
2022-10-13T01:05:35.412Z,70.58
2022-10-13T01:08:03.728Z,70.59
2022-10-13T01:10:41.795Z,70.97
2022-10-13T01:13:14.552Z,70.82
2022-10-13T01:15:45.742Z,70.81
2022-10-13T01:18:17.485Z,70.81
2022-10-13T01:21:17.185Z,70.82
2022-10-13T01:24:14.159Z,70.92
2022-10-13T01:27:14.919Z,71.14
2022-10-13T01:30:11.711Z,71.33
2022-10-13T01:32:49.262Z,71.36
2022-10-13T01:35:20.837Z,71.57
2022-10-13T01:37:50.924Z,71.27
2022-10-13T01:40:24.910Z,71.50
2022-10-13T01:42:57.940Z,71.57
2022-10-13T01:45:31.507Z,71.60
2022-10-13T01:47:59.850Z,71.76
2022-10-13T01:50:27.780Z,71.86
2022-10-13T01:52:55.829Z,72.00
2022-10-13T01:55:23.766Z,71.81
2022-10-13T01:57:51.420Z,71.76
2022-10-13T02:00:21.009Z,72.00
2022-10-13T02:02:57.019Z,72.00
2022-10-13T02:05:28.262Z,72.22
2022-10-13T02:08:02.626Z,72.52
2022-10-13T02:10:35.432Z,72.61
2022-10-13T02:13:04.758Z,72.80
2022-10-13T02:15:36.100Z,72.51
2022-10-13T02:18:05.802Z,72.62
2022-10-13T02:20:33.793Z,73.00
2022-10-13T02:23:03.927Z,73.23
2022-10-13T02:25:32.182Z,73.07
2022-10-13T02:28:01.196Z,73.30
2022-10-13T02:30:31.279Z,73.20
2022-10-13T02:32:58.965Z,73.24
2022-10-13T02:35:28.072Z,73.20
2022-10-13T02:37:55.674Z,73.43
2022-10-13T02:40:23.404Z,73.09
2022-10-13T02:42:51.089Z,73.43
2022-10-13T02:45:19.223Z,73.47
2022-10-13T02:47:46.898Z,73.28
2022-10-13T02:50:14.659Z,73.36
2022-10-13T02:52:43.709Z,73.23
2022-10-13T02:55:11.449Z,73.69
2022-10-13T02:57:39.158Z,73.62
2022-10-13T03:00:08.188Z,73.51
2022-10-13T03:02:35.946Z,73.76
2022-10-13T03:05:03.632Z,73.63
2022-10-13T03:07:31.294Z,73.96
2022-10-13T03:10:00.379Z,73.64
2022-10-13T03:12:28.122Z,73.59
2022-10-13T03:14:55.719Z,73.82
2022-10-13T03:17:23.427Z,73.90
2022-10-13T03:19:51.224Z,73.98
2022-10-13T03:22:19.306Z,73.98
2022-10-13T03:24:47.116Z,73.91
2022-10-13T03:27:16.143Z,73.74
2022-10-13T03:29:43.758Z,73.79
2022-10-13T03:32:11.675Z,73.87
2022-10-13T03:34:39.343Z,74.04
2022-10-13T03:37:07.393Z,74.41
2022-10-13T03:39:35.058Z,74.14
2022-10-13T03:42:02.924Z,74.18
2022-10-13T03:44:31.978Z,74.41
2022-10-13T03:46:59.667Z,74.78
2022-10-13T03:49:27.339Z,74.63
2022-10-13T03:51:54.964Z,74.16
2022-10-13T03:54:22.724Z,74.37
2022-10-13T03:56:50.373Z,74.76
2022-10-13T03:59:18.594Z,74.61
2022-10-13T04:01:47.700Z,74.78
2022-10-13T04:04:15.564Z,74.69
2022-10-13T04:06:43.426Z,74.90
2022-10-13T04:09:11.117Z,75.00
2022-10-13T04:11:38.758Z,75.06
2022-10-13T04:14:06.422Z,75.00
2022-10-13T04:16:34.147Z,75.17
2022-10-13T04:19:05.231Z,75.14
2022-10-13T04:21:34.448Z,75.27
2022-10-13T04:24:03.008Z,75.14
2022-10-13T04:26:32.660Z,75.31
2022-10-13T04:29:01.071Z,75.58
2022-10-13T04:31:30.394Z,75.49
2022-10-13T04:33:58.759Z,75.72
2022-10-13T04:36:28.899Z,75.55
2022-10-13T04:38:56.702Z,75.93
2022-10-13T04:41:25.754Z,75.79
2022-10-13T04:43:54.566Z,76.01
2022-10-13T04:46:24.210Z,75.90
2022-10-13T04:48:52.081Z,75.82
2022-10-13T04:51:22.117Z,76.14
2022-10-13T04:53:55.443Z,76.13
2022-10-13T04:56:23.039Z,76.12
2022-10-13T04:58:50.702Z,76.09
2022-10-13T05:01:22.078Z,76.43
2022-10-13T05:03:52.071Z,76.50
2022-10-13T05:06:21.530Z,76.55
2022-10-13T05:08:49.272Z,76.60
2022-10-13T05:11:19.961Z,76.60
2022-10-13T05:13:47.939Z,76.86
2022-10-13T05:16:17.065Z,76.68
2022-10-13T05:18:44.963Z,76.78
2022-10-13T05:21:14.295Z,76.77
2022-10-13T05:23:42.824Z,76.66
2022-10-13T05:26:12.877Z,76.63
2022-10-13T05:28:42.310Z,76.66
2022-10-13T05:31:11.618Z,76.75
2022-10-13T05:33:39.751Z,76.97
2022-10-13T05:36:08.994Z,77.29
2022-10-13T05:38:36.735Z,76.78
2022-10-13T05:41:05.459Z,77.41
2022-10-13T05:43:33.457Z,77.68
2022-10-13T05:46:02.795Z,77.58
2022-10-13T05:48:30.829Z,77.56
2022-10-13T05:51:00.547Z,77.79
2022-10-13T05:53:29.733Z,77.64
2022-10-13T05:56:05.953Z,77.42
2022-10-13T05:58:34.127Z,77.59
2022-10-13T06:01:03.320Z,77.74
2022-10-13T06:03:31.085Z,77.67
2022-10-13T06:05:58.798Z,77.66
2022-10-13T06:08:26.429Z,77.73
2022-10-13T06:10:54.237Z,77.41
2022-10-13T06:13:21.816Z,77.38
2022-10-13T06:15:49.455Z,77.51
2022-10-13T06:18:18.506Z,77.64
2022-10-13T06:20:46.144Z,78.00
2022-10-13T06:23:13.839Z,78.06
2022-10-13T06:25:48.248Z,77.98
2022-10-13T06:28:16.363Z,77.93
2022-10-13T06:30:46.958Z,78.20
2022-10-13T06:33:14.713Z,78.28
2022-10-13T06:35:43.698Z,78.00
2022-10-13T06:38:11.605Z,78.05
2022-10-13T06:40:39.293Z,78.46
2022-10-13T06:43:07.048Z,78.43
2022-10-13T06:45:34.617Z,78.37
2022-10-13T06:48:02.270Z,78.41
2022-10-13T06:50:32.129Z,78.51
2022-10-13T06:53:01.195Z,78.54
2022-10-13T06:55:28.835Z,79.11
2022-10-13T06:57:56.877Z,78.79
2022-10-13T07:00:24.551Z,78.71
2022-10-13T07:02:53.130Z,78.82
2022-10-13T07:05:20.847Z,79.06
2022-10-13T07:07:48.536Z,79.07
2022-10-13T07:10:17.812Z,78.95
2022-10-13T07:12:45.667Z,79.14
2022-10-13T07:15:13.343Z,79.05
2022-10-13T07:17:41.071Z,79.14
2022-10-13T07:20:09.497Z,79.26
2022-10-13T07:22:37.489Z,79.55
2022-10-13T07:25:05.627Z,79.84
2022-10-13T07:27:34.587Z,79.81
2022-10-13T07:30:02.240Z,79.75
2022-10-13T07:32:30.129Z,79.96
2022-10-13T07:34:57.947Z,80.01
2022-10-13T07:37:26.220Z,79.90
2022-10-13T07:39:53.916Z,79.76
2022-10-13T07:42:21.598Z,80.05
2022-10-13T07:44:50.655Z,80.08
2022-10-13T07:47:18.679Z,80.25
2022-10-13T07:49:47.090Z,80.02
2022-10-13T07:52:14.854Z,80.28
2022-10-13T07:54:42.786Z,80.11
2022-10-13T07:57:10.554Z,80.29
2022-10-13T07:59:38.340Z,80.69
2022-10-13T08:02:07.622Z,80.62
2022-10-13T08:04:35.964Z,80.43
2022-10-13T08:07:04.318Z,80.59
2022-10-13T08:09:32.181Z,80.62
2022-10-13T08:12:00.961Z,80.97
2022-10-13T08:14:29.954Z,80.42
2022-10-13T08:16:57.922Z,80.66
2022-10-13T08:19:28.298Z,80.47
2022-10-13T08:21:58.577Z,80.96
2022-10-13T08:24:28.209Z,81.07
2022-10-13T08:26:55.813Z,81.07
2022-10-13T08:29:24.282Z,80.94
2022-10-13T08:31:53.195Z,81.22
2022-10-13T08:34:21.904Z,81.64
2022-10-13T08:36:53.023Z,81.27
2022-10-13T08:39:21.352Z,81.34
2022-10-13T08:41:49.275Z,81.39
2022-10-13T08:44:59.567Z,81.11
2022-10-13T08:47:13.342Z,81.09
2022-10-13T08:49:42.351Z,80.78
2022-10-13T08:52:18.356Z,80.98
2022-10-13T08:54:46.662Z,80.85
2022-10-13T08:57:14.573Z,80.68
2022-10-13T08:59:42.305Z,80.90
2022-10-13T09:02:14.752Z,80.88
2022-10-13T09:04:46.571Z,81.20
2022-10-13T09:07:18.135Z,81.56
2022-10-13T09:09:46.053Z,81.40
2022-10-13T09:12:15.667Z,81.52
2022-10-13T09:14:43.343Z,81.66
2022-10-13T09:17:16.809Z,81.64
2022-10-13T09:19:45.340Z,81.75
2022-10-13T09:22:24.059Z,81.66
2022-10-13T09:25:09.285Z,81.57
2022-10-13T09:27:43.583Z,81.98
2022-10-13T09:30:33.688Z,82.55
2022-10-13T09:33:20.595Z,82.37
2022-10-13T09:35:50.416Z,82.78
2022-10-13T09:38:21.391Z,82.59
2022-10-13T09:40:59.268Z,82.51
2022-10-13T09:43:33.799Z,82.70
2022-10-13T09:46:02.834Z,82.96
2022-10-13T09:48:32.678Z,82.56
2022-10-13T09:51:00.408Z,82.77
2022-10-13T09:53:33.989Z,83.28
2022-10-13T09:56:18.150Z,82.89
2022-10-13T09:58:50.367Z,83.10
2022-10-13T10:01:22.830Z,82.91
2022-10-13T10:03:50.675Z,83.05
2022-10-13T10:06:19.219Z,82.87
2022-10-13T10:09:09.143Z,82.89
2022-10-13T10:11:41.792Z,83.18
2022-10-13T10:14:17.058Z,82.09
2022-10-13T10:16:47.770Z,82.18
2022-10-13T10:19:21.604Z,81.94
2022-10-13T10:21:51.276Z,82.18
2022-10-13T10:24:27.008Z,81.42
2022-10-13T10:26:57.482Z,81.70
2022-10-13T10:29:30.706Z,82.18
2022-10-13T10:32:20.984Z,82.03
2022-10-13T10:34:52.244Z,81.65
2022-10-13T10:37:25.491Z,81.29
2022-10-13T10:40:01.338Z,81.39
2022-10-13T10:42:49.727Z,81.25
2022-10-13T10:45:23.621Z,80.95
2022-10-13T10:47:53.397Z,81.18
2022-10-13T10:50:21.954Z,81.04
2022-10-13T10:52:56.169Z,81.80
2022-10-13T10:55:31.533Z,81.27
2022-10-13T10:58:15.048Z,80.43
2022-10-13T11:00:46.720Z,80.86
2022-10-13T11:03:23.359Z,80.29
2022-10-13T11:06:02.897Z,80.21
2022-10-13T11:08:32.323Z,79.92
2022-10-13T11:11:35.045Z,80.26
2022-10-13T11:14:24.442Z,80.24
2022-10-13T11:17:25.106Z,79.79
2022-10-13T11:19:53.173Z,79.96
2022-10-13T11:22:23.883Z,80.45
2022-10-13T11:25:20.529Z,81.03
2022-10-13T11:27:49.855Z,80.70
2022-10-13T11:30:57.445Z,79.78
2022-10-13T11:33:36.465Z,80.76
2022-10-13T11:36:43.940Z,80.75
2022-10-13T11:39:36.583Z,80.33
2022-10-13T11:42:12.741Z,81.57
2022-10-13T11:44:51.806Z,80.54
2022-10-13T11:47:31.602Z,80.53
2022-10-13T11:50:05.211Z,80.80
2022-10-13T11:52:55.088Z,80.61
2022-10-13T11:55:34.493Z,80.15
2022-10-13T11:58:16.610Z,80.22
2022-10-13T12:00:56.818Z,80.28
2022-10-13T12:03:28.200Z,80.96
2022-10-13T12:05:59.168Z,80.71
2022-10-13T12:08:27.224Z,80.50
2022-10-13T12:10:58.182Z,81.00
2022-10-13T12:13:27.420Z,80.50
2022-10-13T12:16:03.194Z,80.84
2022-10-13T12:18:34.142Z,80.18
2022-10-13T12:21:04.163Z,79.96
2022-10-13T12:23:33.429Z,79.89
2022-10-13T12:26:01.569Z,79.68
2022-10-13T12:28:31.040Z,79.80
2022-10-13T12:31:01.332Z,79.99
2022-10-13T12:33:31.143Z,80.29
2022-10-13T12:36:12.713Z,80.48
2022-10-13T12:38:45.037Z,81.14
2022-10-13T12:41:12.959Z,81.64
2022-10-13T12:43:40.934Z,82.13
2022-10-13T12:46:09.970Z,82.64
2022-10-13T12:48:38.422Z,83.52
2022-10-13T12:51:14.138Z,83.56
2022-10-13T12:53:41.917Z,84.35
2022-10-13T12:56:19.910Z,84.54
2022-10-13T12:58:47.616Z,84.92
2022-10-13T13:01:33.501Z,85.00
2022-10-13T13:04:03.222Z,85.08
2022-10-13T13:06:33.461Z,85.40
2022-10-13T13:09:08.711Z,85.70
2022-10-13T13:11:37.736Z,86.17
2022-10-13T13:14:25.467Z,86.22
2022-10-13T13:17:10.472Z,85.91
2022-10-13T13:19:38.324Z,86.46
2022-10-13T13:22:06.946Z,85.89
2022-10-13T13:24:40.303Z,86.25
2022-10-13T13:27:18.416Z,86.02
2022-10-13T13:29:46.363Z,86.01
2022-10-13T13:32:19.866Z,86.51
2022-10-13T13:34:48.030Z,86.43
2022-10-13T13:37:22.231Z,86.13
2022-10-13T13:39:50.075Z,85.95
2022-10-13T13:42:17.967Z,86.20
2022-10-13T13:44:45.686Z,86.35
2022-10-13T13:47:22.770Z,86.36
2022-10-13T13:49:51.902Z,86.22
2022-10-13T13:52:19.763Z,86.49
2022-10-13T13:54:47.460Z,87.08
2022-10-13T13:57:15.876Z,86.53
2022-10-13T13:59:44.002Z,86.88
2022-10-13T14:02:14.909Z,87.25
2022-10-13T14:04:44.430Z,87.02
2022-10-13T14:07:12.585Z,87.04
2022-10-13T14:09:40.330Z,87.19
2022-10-13T14:12:08.133Z,87.57
2022-10-13T14:14:35.881Z,87.10
2022-10-13T14:17:04.694Z,87.17
2022-10-13T14:19:32.801Z,87.51
2022-10-13T14:22:05.859Z,86.47
2022-10-13T14:24:36.208Z,87.13
2022-10-13T14:27:03.927Z,87.26
2022-10-13T14:29:31.767Z,87.15
2022-10-13T14:31:59.475Z,87.07
2022-10-13T14:34:27.544Z,87.15
2022-10-13T14:36:55.497Z,87.26
2022-10-13T14:39:24.670Z,87.26
2022-10-13T14:41:52.339Z,87.21
2022-10-13T14:44:20.248Z,86.82
2022-10-13T14:46:47.951Z,86.66
2022-10-13T14:49:15.737Z,86.67
2022-10-13T14:51:43.614Z,87.00
2022-10-13T14:54:11.393Z,87.18
2022-10-13T14:56:40.520Z,86.92
2022-10-13T14:59:08.772Z,87.40
2022-10-13T15:01:36.494Z,87.52
2022-10-13T15:04:04.675Z,87.18
2022-10-13T15:06:32.790Z,87.43
2022-10-13T15:09:02.438Z,87.31
2022-10-13T15:11:30.062Z,87.62
2022-10-13T15:13:59.097Z,87.36
2022-10-13T15:16:28.861Z,87.53
2022-10-13T15:18:57.091Z,87.34
2022-10-13T15:21:25.352Z,87.43
2022-10-13T15:23:53.036Z,87.21
2022-10-13T15:26:21.153Z,87.18
2022-10-13T15:28:51.142Z,87.32
2022-10-13T15:34:05.586Z,87.93
2022-10-13T15:36:33.185Z,88.26
2022-10-13T15:39:00.815Z,87.88
2022-10-13T15:41:28.447Z,87.87
2022-10-13T15:43:56.076Z,88.30
2022-10-13T15:46:24.280Z,88.43
2022-10-13T15:48:53.205Z,87.92
2022-10-13T15:51:24.132Z,88.06
2022-10-13T15:53:52.159Z,87.90
2022-10-13T15:56:19.886Z,88.00
2022-10-13T15:58:47.548Z,88.34
2022-10-13T16:01:15.294Z,88.41
2022-10-13T16:03:43.487Z,88.51
2022-10-13T16:06:13.087Z,88.71
2022-10-13T16:08:43.987Z,88.54
2022-10-13T16:11:12.914Z,88.53
2022-10-13T16:13:41.031Z,88.64
2022-10-13T16:16:08.922Z,88.32
2022-10-13T16:18:38.427Z,88.69
2022-10-13T16:21:12.347Z,88.45
2022-10-13T16:23:45.424Z,88.25
2022-10-13T16:26:13.186Z,88.39
2022-10-13T16:28:41.126Z,88.42
2022-10-13T16:31:12.608Z,88.70
2022-10-13T16:33:41.083Z,89.03
2022-10-13T16:36:10.597Z,88.60
2022-10-13T16:38:38.224Z,88.70
2022-10-13T16:41:09.319Z,89.00
2022-10-13T16:43:37.046Z,88.88
2022-10-13T16:46:06.951Z,89.07
2022-10-13T16:48:34.887Z,89.08
2022-10-13T16:51:06.535Z,89.05
2022-10-13T16:53:34.555Z,88.80
2022-10-13T16:56:02.240Z,88.75
2022-10-13T16:58:31.351Z,88.88
2022-10-13T17:01:03.988Z,88.99
2022-10-13T17:03:31.728Z,88.77
2022-10-13T17:05:59.399Z,88.81
2022-10-13T17:08:27.147Z,88.76
2022-10-13T17:10:58.233Z,89.54
2022-10-13T17:13:26.178Z,89.18
2022-10-13T17:15:57.074Z,89.80
2022-10-13T17:18:25.761Z,89.60
2022-10-13T17:20:54.350Z,89.50
2022-10-13T17:23:22.278Z,89.32
2022-10-13T17:25:50.148Z,89.53
2022-10-13T17:28:18.189Z,89.19
2022-10-13T17:30:46.190Z,89.63
2022-10-13T17:33:15.301Z,89.58
2022-10-13T17:35:42.968Z,89.87
2022-10-13T17:38:10.718Z,89.48
2022-10-13T17:40:38.474Z,89.59
2022-10-13T17:43:06.089Z,89.92
2022-10-13T17:45:33.719Z,89.47
2022-10-13T17:48:01.722Z,89.54
2022-10-13T17:50:30.741Z,89.43
2022-10-13T17:52:58.402Z,89.51
2022-10-13T17:55:26.053Z,89.08
2022-10-13T17:57:53.673Z,89.42
2022-10-13T18:00:21.595Z,89.74
2022-10-13T18:02:49.388Z,89.95
2022-10-13T18:05:17.174Z,89.75
2022-10-13T18:07:46.202Z,89.83
2022-10-13T18:12:08.210Z,89.92
2022-10-13T18:14:35.946Z,89.75
2022-10-13T18:17:03.612Z,89.48
2022-10-13T18:19:31.228Z,89.50
2022-10-13T18:21:58.908Z,89.67
2022-10-13T18:24:26.775Z,89.90
2022-10-13T18:26:54.545Z,89.64
2022-10-13T18:29:23.724Z,89.45
2022-10-13T18:31:51.357Z,89.81
2022-10-13T18:34:19.169Z,89.52
2022-10-13T18:36:48.351Z,90.00
2022-10-13T18:39:18.034Z,90.05
2022-10-13T18:41:46.025Z,89.78
2022-10-13T18:44:13.876Z,89.70
2022-10-13T18:46:43.042Z,90.14
2022-10-13T18:49:13.487Z,90.11
2022-10-13T18:51:41.304Z,89.65
2022-10-13T18:54:15.987Z,89.75
2022-10-13T18:56:43.676Z,89.54
2022-10-13T18:59:12.321Z,89.75
2022-10-13T19:01:42.804Z,89.97
2022-10-13T19:04:12.875Z,90.15
2022-10-13T19:06:41.091Z,90.01
2022-10-13T19:09:11.125Z,90.04
2022-10-13T19:11:38.898Z,90.15
2022-10-13T19:14:07.590Z,90.24
2022-10-13T19:16:37.293Z,90.04
2022-10-13T19:19:07.947Z,90.19
2022-10-13T19:21:36.008Z,90.26
2022-10-13T19:24:04.005Z,90.56
2022-10-13T19:26:33.859Z,90.24
2022-10-13T19:29:03.132Z,90.27
2022-10-13T19:31:31.968Z,90.37
2022-10-13T19:34:00.407Z,90.26
2022-10-13T19:36:31.657Z,90.35
2022-10-13T19:38:59.994Z,90.31
2022-10-13T19:41:29.661Z,90.04
2022-10-13T19:43:57.832Z,90.51
2022-10-13T19:46:25.480Z,90.32
2022-10-13T19:48:53.187Z,90.15
2022-10-13T19:51:20.913Z,89.97
2022-10-13T19:53:50.023Z,89.78
2022-10-13T19:56:25.442Z,89.88
2022-10-13T19:58:54.159Z,90.12
2022-10-13T20:01:21.976Z,90.13
2022-10-13T20:03:49.952Z,90.21
2022-10-13T20:06:18.367Z,90.54
2022-10-13T20:08:46.274Z,90.61
2022-10-13T20:11:22.184Z,90.62
2022-10-13T20:13:51.561Z,90.54
2022-10-13T20:16:20.913Z,90.51
2022-10-13T20:18:52.426Z,90.86
2022-10-13T20:21:20.129Z,90.92
2022-10-13T20:23:47.887Z,90.81
2022-10-13T20:26:17.036Z,90.98
2022-10-13T20:28:46.138Z,91.02
2022-10-13T20:31:14.666Z,91.07
2022-10-13T20:33:42.593Z,91.06
2022-10-13T20:36:13.055Z,91.14
2022-10-13T20:38:40.775Z,91.05
2022-10-13T20:41:10.427Z,91.15
2022-10-13T20:43:39.481Z,91.10
2022-10-13T20:46:08.846Z,90.76
2022-10-13T20:48:58.199Z,90.97
2022-10-13T20:51:26.682Z,90.62
2022-10-13T20:53:54.362Z,90.72
2022-10-13T20:56:23.594Z,90.91
2022-10-13T20:58:53.132Z,90.90
2022-10-13T21:01:22.509Z,90.97
2022-10-13T21:03:52.972Z,90.89
2022-10-13T21:06:20.876Z,90.55
2022-10-13T21:08:49.145Z,90.47
2022-10-13T21:11:18.132Z,90.22
2022-10-13T21:13:46.047Z,90.36
2022-10-13T21:16:17.139Z,90.32
2022-10-13T21:18:45.728Z,90.18
2022-10-13T21:21:13.443Z,89.73
2022-10-13T21:23:41.131Z,89.93
2022-10-13T21:26:10.211Z,89.56
2022-10-13T21:28:38.844Z,89.63
2022-10-13T21:31:08.209Z,89.78
2022-10-13T21:33:38.395Z,89.59
2022-10-13T21:36:07.638Z,89.58
2022-10-13T21:38:35.567Z,89.92
2022-10-13T21:41:05.036Z,89.73
2022-10-13T21:43:32.698Z,89.67
2022-10-13T21:46:09.381Z,90.29
2022-10-13T21:48:38.439Z,89.89
2022-10-13T21:51:16.999Z,89.64
2022-10-13T21:53:48.057Z,89.53
2022-10-13T21:56:15.779Z,89.66
2022-10-13T21:58:43.546Z,89.80
2022-10-13T22:01:11.575Z,90.11
2022-10-13T22:03:41.645Z,90.01
2022-10-13T22:06:15.882Z,90.04
2022-10-13T22:08:47.542Z,89.81
2022-10-13T22:11:15.973Z,90.06
2022-10-13T22:13:43.686Z,90.03
2022-10-13T22:16:14.217Z,89.99
2022-10-13T22:18:43.559Z,89.98
2022-10-13T22:21:13.587Z,89.98
2022-10-13T22:23:41.977Z,90.22
2022-10-13T22:26:10.323Z,90.25
2022-10-13T22:28:38.264Z,90.16
2022-10-13T22:31:06.627Z,89.88
2022-10-13T22:33:36.346Z,90.30
2022-10-13T22:36:09.006Z,90.11
2022-10-13T22:38:36.942Z,90.32
2022-10-13T22:41:05.742Z,90.88
2022-10-13T22:43:33.458Z,90.86
2022-10-13T22:46:02.457Z,91.01
2022-10-13T22:48:30.238Z,90.79
2022-10-13T22:50:58.059Z,90.95
2022-10-13T22:53:27.183Z,91.13
2022-10-13T22:55:54.874Z,91.61
2022-10-13T22:58:22.627Z,91.11
2022-10-13T23:00:50.253Z,91.70
2022-10-13T23:03:18.299Z,91.53
2022-10-13T23:05:48.476Z,91.65
2022-10-13T23:08:16.257Z,91.63
2022-10-13T23:10:45.582Z,91.99
2022-10-13T23:13:13.298Z,91.88
2022-10-13T23:15:40.974Z,91.67
2022-10-13T23:18:08.663Z,91.81
2022-10-13T23:20:40.321Z,91.65
2022-10-13T23:23:08.057Z,91.48
2022-10-13T23:25:36.247Z,91.77
2022-10-13T23:28:06.110Z,91.68
2022-10-13T23:30:33.746Z,91.68
2022-10-13T23:33:01.449Z,91.61
2022-10-13T23:35:29.172Z,91.56
2022-10-13T23:37:56.904Z,91.87
2022-10-13T23:40:24.555Z,91.60
2022-10-13T23:42:52.464Z,91.55
2022-10-13T23:45:21.560Z,91.82
2022-10-13T23:47:49.444Z,91.92
2022-10-13T23:50:17.627Z,91.41
2022-10-13T23:52:45.631Z,91.53
2022-10-13T23:55:13.349Z,91.16
2022-10-13T23:57:41.214Z,91.30
